Sydney, Australia
Current Conditions -  °F | °C
As of 4:00 PM on Thursday 23 Oct 2014 (Local Time) from YSSY Reporting Station
Scattered Clouds Scattered Clouds  
Wind Chill: 25°   Ceiling: Unl
Heat Index: 26°   Visibility: 6mi
Dew Point: 13°   Wind: 13mph
Humidity: 47%   Direction: 130°SE
Pressure: 30"   Gusts: NA
Location:  33.87°S, 151.21°E
Report Text: YSSY 230500Z 13011KT 9999 FEW045 SCT250 25/13 Q1016 TEMPO 0630/0800 VRB25G35KT 3000 TSRA SCT015 FEW035CB
Loading
Personal Weather Stations






























Interactive Weather Map
Tropical Storm Tracking
New forecast layout! Learn more

10-Day Weather Forecast

Advertisements
Track Severe Weather on mobile